East Wareham, MA (02538)

4:02 AM EST on February 09, 2016 (GMT -0500)
White Island Shores | | Change Station
CLOSE
Current Station
Personal Weather Station
Location: Wareham, MA
Elevation: 92 ft
Nearby Weather Stations

Elev 92 ft 41.80 °N, 70.63 °W | Updated 7 seconds ago

Overcast
Overcast
26.1 °F
Feels Like 22 °F
N
3.5
Wind Variable Wind from SSE
Gusts 3.5 mph

Today
High -- | Low -- °F
--% Chance of Precip.
Yesterday
High -- | Low -- °F
Precip. -- in
Pressure 29.71 in
Visibility 6.0 miles
Clouds Scattered Clouds 1500 ft
Mostly Cloudy 2100 ft
Overcast 3200 ft
Windchill 22 °F
Dew Point 24 °F
Humidity 92%
Rainfall 0.00 in
Snow Depth Not available.
6:46 AM 5:07 PM
New Moon, 1% visible
METAR KPYM 090852Z AUTO 34009KT 6SM BR SCT015 BKN021 OVC032 M04/M06 A2970 RMK AO2 SLP059 60000 I1000 I3000 T10441056 58010 $
Pressure 29.71 in
Visibility 6.0 miles
Clouds Scattered Clouds 1500 ft
Mostly Cloudy 2100 ft
Overcast 3200 ft
Windchill 22 °F
Dew Point 24 °F
Humidity 92%
Rainfall 0.00 in
Snow Depth Not available.
6:46 AM 5:07 PM
New Moon, 1% visible
METAR KPYM 090852Z AUTO 34009KT 6SM BR SCT015 BKN021 OVC032 M04/M06 A2970 RMK AO2 SLP059 60000 I1000 I3000 T10441056 58010 $

10-Day Weather Forecast

Almanac

Astronomy

Feb. 09, 2016 Rise Set
Actual Time
Civil Twilight
Nautical Twilight
Astronomical Twilight
Moon
Length of Visible Light
Length of Day
Tomorrow will be .
, % of the Moon is Illuminated

Today's Extremes

State Highs State Lows

Community

WunderPhotos

Upload Photos

1,891,571 photos uploaded!

WunderBlog® & News

Nearby

Air Quality

  Air Quality AQ Index Pollutant
Not available.

Snow Depth

Station Depth Elevation

Earthquake Activity

City Distance Mag. Time & Date
Minimum magnitude displayed is 2.5.

Coastal Water Temperatures

Place Temperature

Stations

Nearby Weather Stations

Station Location Temp. Windchill Dew Point Humidity Wind Precip. Elev Updated Type
                   

Watches & Warnings

There are currently no watches in effect.